createdAt,value
2019-05-16T00:04:44.145Z,5.57
2019-05-16T00:09:38.320Z,4.73
2019-05-16T00:14:32.282Z,6.57
2019-05-16T00:19:28.619Z,3.87
2019-05-16T00:24:22.193Z,4.93
2019-05-16T00:29:18.475Z,5.00
2019-05-16T00:34:15.521Z,3.93
2019-05-16T00:39:09.498Z,6.60
2019-05-16T00:44:03.576Z,4.03
2019-05-16T00:48:58.903Z,7.17
2019-05-16T00:53:53.080Z,5.50
2019-05-16T00:58:48.590Z,4.83
2019-05-16T01:03:42.517Z,7.80
2019-05-16T01:08:38.556Z,6.60
2019-05-16T01:13:32.428Z,5.30
2019-05-16T01:18:28.641Z,3.87
2019-05-16T01:23:22.414Z,3.60
2019-05-16T01:28:17.972Z,5.87
2019-05-16T01:33:12.377Z,4.37
2019-05-16T01:38:08.513Z,8.60
2019-05-16T01:43:02.315Z,7.20
2019-05-16T01:47:58.603Z,4.30
2019-05-16T01:52:52.171Z,4.17
2019-05-16T01:57:48.157Z,4.80
2019-05-16T02:02:42.131Z,5.00
2019-05-16T02:07:38.825Z,4.50
2019-05-16T02:12:33.003Z,5.57
2019-05-16T02:17:30.045Z,5.20
2019-05-16T02:22:24.317Z,4.83
2019-05-16T02:27:18.383Z,5.13
2019-05-16T02:32:14.248Z,5.27
2019-05-16T02:37:23.524Z,5.90
2019-05-16T02:42:06.421Z,4.93
2019-05-16T02:47:01.665Z,4.13
2019-05-16T02:51:55.910Z,7.53
2019-05-16T02:56:50.751Z,4.67
2019-05-16T03:01:45.129Z,4.23
2019-05-16T03:06:41.126Z,4.73
2019-05-16T03:11:35.248Z,6.60
2019-05-16T03:16:31.772Z,7.53
2019-05-16T03:21:27.328Z,6.47
2019-05-16T03:26:25.963Z,4.67
2019-05-16T03:31:24.542Z,4.77
2019-05-16T03:36:16.495Z,4.73
2019-05-16T03:41:11.501Z,5.83
2019-05-16T03:46:05.712Z,8.37
2019-05-16T03:51:00.846Z,6.40
2019-05-16T03:55:55.053Z,6.27
2019-05-16T04:00:52.679Z,6.13
2019-05-16T04:05:47.349Z,8.10
2019-05-16T04:10:42.006Z,3.93
2019-05-16T04:15:36.059Z,7.00
2019-05-16T04:20:31.935Z,11.10
2019-05-16T04:25:25.926Z,8.37
2019-05-16T04:30:21.981Z,7.33
2019-05-16T04:35:15.962Z,7.87
2019-05-16T04:40:12.152Z,5.80
2019-05-16T04:45:06.806Z,8.80
2019-05-16T04:50:01.757Z,7.73
2019-05-16T04:54:56.028Z,7.17
2019-05-16T04:59:50.918Z,5.87
2019-05-16T05:04:45.298Z,7.67
2019-05-16T05:09:40.934Z,7.53
2019-05-16T05:14:35.096Z,5.10
2019-05-16T05:19:30.655Z,9.10
2019-05-16T05:24:24.877Z,7.50
2019-05-16T05:29:20.046Z,8.67
2019-05-16T05:34:14.199Z,7.07
2019-05-16T05:39:12.971Z,9.47
2019-05-16T05:44:04.053Z,6.60
2019-05-16T05:48:59.875Z,7.63
2019-05-16T05:53:53.938Z,9.37
2019-05-16T05:58:47.899Z,6.97
2019-05-16T06:03:44.764Z,6.67
2019-05-16T06:08:40.893Z,11.60
2019-05-16T06:13:34.630Z,14.00
2019-05-16T06:18:30.479Z,6.80
2019-05-16T06:23:24.549Z,8.30
2019-05-16T06:28:20.682Z,12.60
2019-05-16T06:33:14.476Z,7.87
2019-05-16T06:38:09.997Z,11.77
2019-05-16T06:43:04.286Z,5.17
2019-05-16T06:47:58.270Z,4.80
2019-05-16T06:52:52.849Z,6.30
2019-05-16T06:57:46.805Z,6.53
2019-05-16T07:02:41.126Z,9.10
2019-05-16T07:07:35.491Z,6.60
2019-05-16T07:12:33.701Z,6.72
2019-05-16T07:17:27.229Z,5.67
2019-05-16T07:22:21.198Z,9.95
2019-05-16T07:27:15.157Z,3.67
2019-05-16T07:32:09.219Z,10.78
2019-05-16T07:37:03.311Z,3.83
2019-05-16T07:41:59.813Z,3.90
2019-05-16T07:46:53.105Z,7.35
2019-05-16T07:51:47.102Z,4.60
2019-05-16T07:56:43.107Z,5.80
2019-05-16T08:01:37.103Z,6.37
2019-05-16T08:06:34.071Z,6.92
2019-05-16T08:11:29.877Z,5.60
2019-05-16T08:16:22.971Z,6.73
2019-05-16T08:21:17.206Z,4.95
2019-05-16T08:26:12.925Z,5.20
2019-05-16T08:31:06.912Z,6.05
2019-05-16T08:36:08.114Z,6.92
2019-05-16T08:41:08.116Z,5.37
2019-05-16T08:45:55.258Z,6.37
2019-05-16T08:55:45.210Z,6.67
2019-05-16T09:00:41.924Z,4.90
2019-05-16T09:05:35.300Z,5.00
2019-05-16T09:10:30.561Z,6.20
2019-05-16T09:10:55.605Z,3.87
2019-05-16T09:15:27.268Z,6.28
2019-05-16T09:20:21.294Z,5.80
2019-05-16T09:25:18.190Z,5.12
2019-05-16T09:30:11.948Z,6.40
2019-05-16T09:35:07.808Z,6.08
2019-05-16T09:40:06.497Z,6.90
2019-05-16T09:45:00.768Z,11.63
2019-05-16T09:49:54.829Z,10.20
2019-05-16T09:54:48.804Z,6.12
2019-05-16T09:59:42.762Z,8.38
2019-05-16T10:04:36.936Z,9.28
2019-05-16T10:09:41.390Z,10.23
2019-05-16T10:14:27.020Z,7.97
2019-05-16T10:19:21.030Z,7.17
2019-05-16T10:24:15.034Z,3.95
2019-05-16T10:29:10.853Z,8.85
2019-05-16T10:34:07.689Z,4.65
2019-05-16T10:39:01.169Z,6.78
2019-05-16T10:43:56.828Z,6.80
2019-05-16T10:48:50.995Z,6.47
2019-05-16T10:54:10.467Z,5.22
2019-05-16T10:59:04.980Z,3.62
2019-05-16T11:03:39.524Z,7.35
2019-05-16T11:08:33.638Z,6.50
2019-05-16T11:13:28.184Z,7.45
2019-05-16T11:18:22.356Z,6.95
2019-05-16T11:23:22.349Z,3.77
2019-05-16T11:28:12.326Z,4.08
2019-05-16T11:33:07.561Z,4.15
2019-05-16T11:38:02.214Z,7.00
2019-05-16T11:43:06.528Z,6.20
2019-05-16T11:47:52.139Z,6.83
2019-05-16T11:52:48.677Z,4.47
2019-05-16T11:57:42.681Z,8.75
2019-05-16T12:02:37.718Z,5.65
2019-05-16T12:07:34.745Z,4.92
2019-05-16T12:12:28.536Z,9.45
2019-05-16T12:17:22.690Z,6.08
2019-05-16T12:22:18.349Z,5.40
2019-05-16T12:27:12.702Z,6.33
2019-05-16T12:32:07.788Z,6.78
2019-05-16T12:37:04.268Z,8.88
2019-05-16T12:42:01.189Z,11.95
2019-05-16T12:46:56.993Z,8.65
2019-05-16T12:51:51.000Z,7.80
2019-05-16T12:56:48.407Z,6.12
2019-05-16T13:01:42.565Z,3.27
2019-05-16T13:06:38.464Z,4.20
2019-05-16T13:11:32.442Z,9.35
2019-05-16T13:16:28.207Z,10.30
2019-05-16T13:21:23.133Z,7.62
2019-05-16T13:26:17.722Z,9.28
2019-05-16T13:31:11.917Z,6.60
2019-05-16T13:36:07.556Z,8.58
2019-05-16T13:41:02.009Z,7.95
2019-05-16T13:45:57.499Z,9.28
2019-05-16T13:51:10.535Z,9.48
2019-05-16T13:55:52.415Z,6.12
2019-05-16T14:00:48.008Z,7.08
2019-05-16T14:05:42.389Z,12.35
2019-05-16T14:10:37.599Z,7.05
2019-05-16T14:15:31.866Z,11.68
2019-05-16T14:20:25.950Z,8.63
2019-05-16T14:25:19.936Z,8.90
2019-05-16T14:30:17.745Z,7.35
2019-05-16T14:35:12.103Z,7.60
2019-05-16T14:40:06.722Z,8.13
2019-05-16T14:45:10.872Z,9.00
2019-05-16T14:49:56.731Z,9.53
2019-05-16T14:54:53.673Z,7.20
2019-05-16T14:59:48.074Z,7.33
2019-05-16T15:04:42.293Z,5.85
2019-05-16T15:09:37.989Z,5.83
2019-05-16T15:14:32.220Z,3.98
2019-05-16T15:19:26.328Z,4.87
2019-05-16T15:24:20.338Z,6.67
2019-05-16T15:29:16.526Z,6.20
2019-05-16T15:34:10.428Z,7.05
2019-05-16T15:39:08.356Z,7.87
2019-05-16T15:44:02.771Z,5.87
2019-05-16T15:49:00.188Z,5.97
2019-05-16T15:53:52.947Z,7.28
2019-05-16T15:58:46.993Z,9.23
2019-05-16T16:03:41.171Z,8.88
2019-05-16T16:08:37.345Z,6.70
2019-05-16T16:13:31.663Z,7.15
2019-05-16T16:18:27.028Z,7.55
2019-05-16T16:23:21.409Z,7.58
2019-05-16T16:28:17.499Z,7.10
2019-05-16T16:33:24.988Z,9.00
2019-05-16T16:38:08.428Z,7.22
2019-05-16T16:43:02.655Z,8.13
2019-05-16T16:47:57.288Z,10.90
2019-05-16T16:52:51.496Z,10.05
2019-05-16T16:57:48.484Z,7.70
2019-05-16T17:02:58.358Z,6.87
2019-05-16T17:07:38.434Z,8.93
2019-05-16T17:12:32.530Z,8.78
2019-05-16T17:17:27.905Z,6.78
2019-05-16T17:22:21.924Z,8.83
2019-05-16T17:27:16.095Z,8.00
2019-05-16T17:32:10.457Z,7.25
2019-05-16T17:37:09.992Z,7.12
2019-05-16T17:42:04.103Z,9.83
2019-05-16T17:46:58.188Z,9.20
2019-05-16T17:51:52.331Z,9.73
2019-05-16T17:56:46.522Z,7.80
2019-05-16T18:01:40.703Z,8.95
2019-05-16T18:06:36.947Z,6.50
2019-05-16T18:11:30.721Z,10.20
2019-05-16T18:16:25.177Z,9.55
2019-05-16T18:21:22.171Z,7.10
2019-05-16T18:26:17.333Z,9.85
2019-05-16T18:31:11.581Z,11.40
2019-05-16T18:36:07.708Z,13.20
2019-05-16T18:41:01.537Z,12.07
2019-05-16T18:45:56.717Z,10.43
2019-05-16T18:50:50.988Z,14.50
2019-05-16T18:55:46.210Z,15.08
2019-05-16T19:00:40.338Z,14.75
2019-05-16T19:05:34.571Z,11.57
2019-05-16T19:10:28.810Z,12.43
2019-05-16T19:15:22.835Z,16.00
2019-05-16T19:20:17.731Z,14.28
2019-05-16T19:25:12.235Z,19.50
2019-05-16T19:30:07.154Z,14.95
2019-05-16T19:35:01.227Z,15.50
2019-05-16T19:39:56.965Z,13.73
2019-05-16T19:44:50.992Z,12.13
2019-05-16T19:49:46.459Z,12.30
2019-05-16T19:54:40.686Z,12.43
2019-05-16T19:59:36.624Z,12.28
2019-05-16T20:04:30.624Z,13.50
2019-05-16T20:09:26.731Z,13.90
2019-05-16T20:14:23.025Z,12.20
2019-05-16T20:19:16.998Z,13.13
2019-05-16T20:24:13.744Z,10.95
2019-05-16T20:29:09.807Z,13.00
2019-05-16T20:34:03.881Z,11.50
2019-05-16T20:38:57.860Z,12.43
2019-05-16T20:43:51.854Z,13.97
2019-05-16T20:48:45.954Z,14.18
2019-05-16T20:53:40.058Z,14.10
2019-05-16T20:58:34.243Z,13.93
2019-05-16T21:03:28.359Z,13.97
2019-05-16T21:08:22.345Z,17.87
2019-05-16T21:13:18.215Z,16.75
2019-05-16T21:18:12.218Z,15.10
2019-05-16T21:23:07.365Z,16.20
2019-05-16T21:28:01.523Z,21.03
2019-05-16T21:32:58.411Z,18.43
2019-05-16T21:37:52.512Z,16.07
2019-05-16T21:42:46.527Z,20.63
2019-05-16T21:47:40.590Z,26.00
2019-05-16T21:52:36.421Z,20.17
2019-05-16T21:57:32.452Z,20.80
2019-05-16T22:02:26.717Z,22.33
2019-05-16T22:07:32.808Z,23.27
2019-05-16T22:12:18.315Z,22.77
2019-05-16T22:17:14.290Z,26.70
2019-05-16T22:22:08.604Z,24.50
2019-05-16T22:27:06.867Z,23.70
2019-05-16T22:32:01.018Z,23.53
2019-05-16T22:36:57.135Z,26.10
2019-05-16T22:41:50.982Z,23.07
2019-05-16T22:46:46.468Z,24.13
2019-05-16T22:51:40.633Z,28.83
2019-05-16T22:56:34.692Z,22.93
2019-05-16T23:01:28.656Z,22.53
2019-05-16T23:06:22.630Z,24.30
2019-05-16T23:11:16.714Z,21.90
2019-05-16T23:16:10.772Z,23.13
2019-05-16T23:21:06.403Z,21.90
2019-05-16T23:26:00.513Z,23.60
2019-05-16T23:30:54.462Z,22.40
2019-05-16T23:35:48.536Z,23.10
2019-05-16T23:40:42.542Z,23.43
2019-05-16T23:45:37.542Z,21.87
2019-05-16T23:50:31.761Z,27.60
2019-05-16T23:55:27.810Z,22.90
